Time,TemperatureF,DewpointF,PressureIn,WindDirection,WindDirectionDegrees,WindSpeedMPH,WindSpeedGustMPH,Humidity,HourlyPrecipIn,Conditions,Clouds,dailyrainin,SoftwareType,DateUTC
2013-04-05 00:01:00,58.0,54.0,29.93,ENE,74,0.0,-999.0,85,-99.99,,,-99.99,,2013-04-05 07:01:00,
2013-04-05 00:12:00,58.0,54.0,29.93,ENE,74,0.0,-999.0,85,-99.99,,,-99.99,,2013-04-05 07:12:00,
2013-04-05 00:22:00,58.0,53.0,29.93,ENE,74,0.0,-999.0,84,-99.99,,,-99.99,,2013-04-05 07:22:00,
2013-04-05 00:31:00,58.0,53.0,29.93,ENE,74,0.0,-999.0,84,-99.99,,,-99.99,,2013-04-05 07:31:00,
2013-04-05 00:42:00,58.0,53.0,29.93,ENE,74,0.0,-999.0,84,-99.99,,,-99.99,,2013-04-05 07:42:00,
2013-04-05 00:52:00,58.0,53.0,29.93,ENE,74,0.0,-999.0,83,-99.99,,,-99.99,,2013-04-05 07:52:00,
2013-04-05 01:02:00,58.0,53.0,29.93,ENE,74,0.0,-999.0,83,-99.99,,,-99.99,,2013-04-05 08:02:00,
2013-04-05 01:12:00,58.0,53.0,29.93,ENE,74,0.0,-999.0,83,-99.99,,,-99.99,,2013-04-05 08:12:00,
2013-04-05 01:32:00,57.0,52.0,29.93,ENE,74,0.0,-999.0,84,-99.99,,,-99.99,,2013-04-05 08:32:00,
2013-04-05 01:42:00,57.0,52.0,29.93,ENE,74,0.0,-999.0,84,-99.99,,,-99.99,,2013-04-05 08:42:00,
2013-04-05 01:52:00,57.0,53.0,29.93,ENE,74,0.0,-999.0,85,-99.99,,,-99.99,,2013-04-05 08:52:00,
2013-04-05 02:02:00,57.0,53.0,29.93,ENE,74,0.0,-999.0,85,-99.99,,,-99.99,,2013-04-05 09:02:00,
2013-04-05 02:11:00,57.0,53.0,29.93,ENE,74,0.0,-999.0,85,-99.99,,,-99.99,,2013-04-05 09:11:00,
2013-04-05 02:22:00,57.0,52.0,29.93,ENE,74,0.0,-999.0,84,-99.99,,,-99.99,,2013-04-05 09:22:00,
2013-04-05 02:32:00,56.0,51.0,29.92,ENE,74,0.0,-999.0,84,-99.99,,,-99.99,,2013-04-05 09:32:00,
2013-04-05 02:42:00,56.0,51.0,29.92,ENE,74,0.0,-999.0,84,-99.99,,,-99.99,,2013-04-05 09:42:00,
2013-04-05 02:52:00,56.0,51.0,29.92,ENE,74,0.0,-999.0,84,-99.99,,,-99.99,,2013-04-05 09:52:00,
2013-04-05 03:02:00,56.0,52.0,29.92,ENE,74,0.0,-999.0,85,-99.99,,,-99.99,,2013-04-05 10:02:00,
2013-04-05 03:12:00,56.0,52.0,29.92,ENE,74,0.0,-999.0,85,-99.99,,,-99.99,,2013-04-05 10:12:00,
2013-04-05 03:23:00,56.0,52.0,29.92,ENE,74,0.0,-999.0,85,-99.99,,,-99.99,,2013-04-05 10:23:00,
2013-04-05 03:32:00,54.0,49.0,29.91,ENE,74,0.0,-999.0,84,-99.99,,,-99.99,,2013-04-05 10:32:00,
2013-04-05 03:42:00,54.0,49.0,29.91,ENE,74,0.0,-999.0,84,-99.99,,,-99.99,,2013-04-05 10:42:00,
2013-04-05 03:53:00,54.0,49.0,29.91,ENE,74,0.0,-999.0,84,-99.99,,,-99.99,,2013-04-05 10:53:00,
2013-04-05 04:02:00,53.0,49.0,29.91,ENE,74,0.0,-999.0,85,-99.99,,,-99.99,,2013-04-05 11:02:00,
2013-04-05 04:12:00,53.0,49.0,29.91,ENE,74,0.0,-999.0,85,-99.99,,,-99.99,,2013-04-05 11:12:00,
2013-04-05 04:21:00,53.0,49.0,29.91,ENE,74,0.0,-999.0,85,-99.99,,,-99.99,,2013-04-05 11:21:00,
2013-04-05 04:32:00,52.0,48.0,29.92,ENE,74,0.0,-999.0,86,-99.99,,,-99.99,,2013-04-05 11:32:00,
2013-04-05 04:42:00,52.0,48.0,29.92,ENE,74,0.0,-999.0,86,-99.99,,,-99.99,,2013-04-05 11:42:00,
2013-04-05 04:52:00,52.0,48.0,29.92,ENE,74,0.0,-999.0,87,-99.99,,,-99.99,,2013-04-05 11:52:00,
2013-04-05 05:02:00,52.0,48.0,29.92,ENE,74,0.0,-999.0,87,-99.99,,,-99.99,,2013-04-05 12:02:00,
2013-04-05 05:11:00,52.0,48.0,29.92,ENE,74,0.0,-999.0,87,-99.99,,,-99.99,,2013-04-05 12:11:00,
2013-04-05 05:22:00,53.0,50.0,29.92,ENE,74,0.0,-999.0,88,-99.99,,,-99.99,,2013-04-05 12:22:00,
2013-04-05 05:32:00,53.0,50.0,29.92,ENE,74,0.0,-999.0,88,-99.99,,,-99.99,,2013-04-05 12:32:00,
2013-04-05 05:42:00,53.0,50.0,29.92,ENE,74,0.0,-999.0,88,-99.99,,,-99.99,,2013-04-05 12:42:00,
2013-04-05 05:52:00,53.0,50.0,29.91,ENE,74,0.0,-999.0,89,-99.99,,,-99.99,,2013-04-05 12:52:00,
2013-04-05 06:01:00,54.0,51.0,29.92,ENE,74,0.0,-999.0,88,-99.99,,,-99.99,,2013-04-05 13:01:00,
2013-04-05 06:11:00,54.0,51.0,29.92,ENE,74,0.0,-999.0,88,-99.99,,,-99.99,,2013-04-05 13:11:00,
2013-04-05 06:21:00,54.0,51.0,29.92,ENE,74,0.0,-999.0,88,-99.99,,,-99.99,,2013-04-05 13:21:00,
2013-04-05 06:32:00,54.0,51.0,29.92,ENE,74,0.0,-999.0,88,-99.99,,,-99.99,,2013-04-05 13:32:00,
2013-04-05 06:42:00,54.0,51.0,29.92,ENE,74,0.0,-999.0,88,-99.99,,,-99.99,,2013-04-05 13:42:00,
2013-04-05 06:52:00,54.0,50.0,29.93,East,82,0.0,-999.0,87,-99.99,,,-99.99,,2013-04-05 13:52:00,
2013-04-05 07:12:00,54.0,50.0,29.93,East,82,0.0,-999.0,87,-99.99,,,-99.99,,2013-04-05 14:12:00,
2013-04-05 07:22:00,53.0,50.0,29.93,East,82,0.0,-999.0,88,-99.99,,,-99.99,,2013-04-05 14:22:00,
2013-04-05 07:53:00,53.0,50.0,29.94,East,82,0.0,-999.0,89,-99.99,,,-99.99,,2013-04-05 14:53:00,
2013-04-05 08:01:00,53.0,50.0,29.94,East,82,0.0,-999.0,89,-99.99,,,-99.99,,2013-04-05 15:01:00,
2013-04-05 08:11:00,53.0,50.0,29.94,East,82,0.0,-999.0,89,-99.99,,,-99.99,,2013-04-05 15:11:00,
2013-04-05 08:22:00,54.0,52.0,29.95,East,82,0.0,-999.0,92,-99.99,,,-99.99,,2013-04-05 15:22:00,
2013-04-05 08:32:00,54.0,51.0,29.95,East,82,0.0,-999.0,89,-99.99,,,-99.99,,2013-04-05 15:32:00,
2013-04-05 08:42:00,54.0,51.0,29.95,East,82,0.0,-999.0,89,-99.99,,,-99.99,,2013-04-05 15:42:00,
2013-04-05 08:53:00,54.0,51.0,29.95,East,82,0.0,-999.0,89,-99.99,,,-99.99,,2013-04-05 15:53:00,
2013-04-05 09:02:00,55.0,52.0,29.95,East,82,0.0,-999.0,88,-99.99,,,-99.99,,2013-04-05 16:02:00,
2013-04-05 09:12:00,55.0,52.0,29.95,East,82,0.0,-999.0,88,-99.99,,,-99.99,,2013-04-05 16:12:00,
2013-04-05 09:22:00,55.0,51.0,29.95,East,82,0.0,-999.0,87,-99.99,,,-99.99,,2013-04-05 16:22:00,
2013-04-05 09:32:00,55.0,51.0,29.96,East,84,0.0,-999.0,87,-99.99,,,-99.99,,2013-04-05 16:32:00,
2013-04-05 09:42:00,55.0,51.0,29.96,East,84,0.0,-999.0,87,-99.99,,,-99.99,,2013-04-05 16:42:00,
2013-04-05 09:52:00,56.0,52.0,29.96,East,84,0.0,-999.0,87,-99.99,,,-99.99,,2013-04-05 16:52:00,
2013-04-05 10:02:00,56.0,52.0,29.96,East,84,0.0,-999.0,86,-99.99,,,-99.99,,2013-04-05 17:02:00,
2013-04-05 10:12:00,56.0,52.0,29.96,East,84,0.0,-999.0,86,-99.99,,,-99.99,,2013-04-05 17:12:00,
2013-04-05 10:22:00,57.0,53.0,29.95,East,84,0.0,-999.0,85,-99.99,,,-99.99,,2013-04-05 17:22:00,
2013-04-05 10:32:00,57.0,52.0,29.96,East,92,0.0,-999.0,84,-99.99,,,-99.99,,2013-04-05 17:32:00,
2013-04-05 10:44:00,57.0,52.0,29.96,East,92,0.0,-999.0,84,-99.99,,,-99.99,,2013-04-05 17:44:00,
2013-04-05 10:52:00,58.0,53.0,29.96,East,90,0.0,-999.0,83,-99.99,,,-99.99,,2013-04-05 17:52:00,
2013-04-05 11:02:00,59.0,53.0,29.96,ENE,68,0.0,-999.0,81,-99.99,,,-99.99,,2013-04-05 18:02:00,
2013-04-05 11:12:00,59.0,53.0,29.96,ENE,68,0.0,-999.0,81,-99.99,,,-99.99,,2013-04-05 18:12:00,
2013-04-05 11:22:00,59.0,53.0,29.95,ESE,107,0.0,-999.0,80,-99.99,,,-99.99,,2013-04-05 18:22:00,
2013-04-05 11:32:00,60.0,53.0,29.96,ESE,103,0.0,-999.0,79,-99.99,,,-99.99,,2013-04-05 18:32:00,
2013-04-05 11:42:00,60.0,53.0,29.96,ESE,103,0.0,-999.0,79,-99.99,,,-99.99,,2013-04-05 18:42:00,
2013-04-05 11:52:00,60.0,53.0,29.96,East,81,0.0,-999.0,79,-99.99,,,-99.99,,2013-04-05 18:52:00,
2013-04-05 12:01:00,60.0,53.0,29.96,East,81,0.0,-999.0,79,-99.99,,,-99.99,,2013-04-05 19:01:00,
2013-04-05 12:12:00,60.0,53.0,29.96,East,81,0.0,-999.0,79,-99.99,,,-99.99,,2013-04-05 19:12:00,
2013-04-05 12:22:00,61.0,53.0,29.95,East,94,0.0,-999.0,75,-99.99,,,-99.99,,2013-04-05 19:22:00,
2013-04-05 12:30:00,64.0,54.0,29.93,SE,138,0.0,-999.0,71,-99.99,,,-99.99,,2013-04-05 19:30:00,
2013-04-05 12:32:00,61.0,53.0,29.95,East,94,0.0,-999.0,75,-99.99,,,-99.99,,2013-04-05 19:32:00,
2013-04-05 12:42:00,61.0,53.0,29.95,East,94,0.0,-999.0,75,-99.99,,,-99.99,,2013-04-05 19:42:00,
2013-04-05 12:52:00,61.0,53.0,29.95,East,94,0.0,-999.0,75,-99.99,,,-99.99,,2013-04-05 19:52:00,
2013-04-05 13:22:00,64.0,54.0,29.93,SE,138,0.0,-999.0,71,-99.99,,,-99.99,,2013-04-05 20:22:00,
2013-04-05 13:52:00,70.0,55.0,29.90,ENE,72,0.0,-999.0,58,-99.99,,,-99.99,,2013-04-05 20:52:00,
2013-04-05 14:02:00,71.0,55.0,29.89,ENE,73,0.0,-999.0,58,-99.99,,,-99.99,,2013-04-05 21:02:00,
2013-04-05 14:12:00,71.0,55.0,29.89,ENE,73,0.0,-999.0,58,-99.99,,,-99.99,,2013-04-05 21:12:00,
2013-04-05 14:22:00,72.0,55.0,29.89,East,83,0.0,-999.0,56,-99.99,,,-99.99,,2013-04-05 21:22:00,
2013-04-05 14:32:00,72.0,54.0,29.88,NNE,29,1.0,-999.0,54,-99.99,,,-99.99,,2013-04-05 21:32:00,
2013-04-05 14:42:00,72.0,54.0,29.88,NNE,29,1.0,-999.0,54,-99.99,,,-99.99,,2013-04-05 21:42:00,
2013-04-05 14:53:00,72.0,54.0,29.88,NNE,29,1.0,-999.0,54,-99.99,,,-99.99,,2013-04-05 21:53:00,
2013-04-05 15:02:00,73.0,55.0,29.88,NE,54,0.0,-999.0,54,-99.99,,,-99.99,,2013-04-05 22:02:00,
2013-04-05 15:12:00,73.0,55.0,29.88,NE,54,0.0,-999.0,54,-99.99,,,-99.99,,2013-04-05 22:12:00,
2013-04-05 15:22:00,73.0,56.0,29.87,ESE,120,1.0,-999.0,56,-99.99,,,-99.99,,2013-04-05 22:22:00,
2013-04-05 15:32:00,73.0,57.0,29.88,NE,47,1.0,-999.0,57,-99.99,,,-99.99,,2013-04-05 22:32:00,
2013-04-05 15:42:00,73.0,57.0,29.88,NE,47,1.0,-999.0,57,-99.99,,,-99.99,,2013-04-05 22:42:00,
2013-04-05 15:52:00,72.0,55.0,29.87,NNE,22,1.0,-999.0,55,-99.99,,,-99.99,,2013-04-05 22:52:00,
2013-04-05 16:02:00,72.0,55.0,29.87,NE,37,1.0,-999.0,55,-99.99,,,-99.99,,2013-04-05 23:02:00,
2013-04-05 16:12:00,72.0,55.0,29.87,NE,37,1.0,-999.0,55,-99.99,,,-99.99,,2013-04-05 23:12:00,
2013-04-05 16:22:00,72.0,55.0,29.86,NW,309,0.0,-999.0,56,-99.99,,,-99.99,,2013-04-05 23:22:00,
2013-04-05 16:32:00,71.0,55.0,29.84,NNE,29,0.0,-999.0,57,-99.99,,,-99.99,,2013-04-05 23:32:00,
2013-04-05 16:42:00,71.0,55.0,29.84,NNE,29,0.0,-999.0,57,-99.99,,,-99.99,,2013-04-05 23:42:00,
2013-04-05 16:52:00,70.0,55.0,29.85,ENE,63,0.0,-999.0,58,-99.99,,,-99.99,,2013-04-05 23:52:00,
2013-04-05 17:02:00,70.0,55.0,29.84,NE,51,0.0,-999.0,60,-99.99,,,-99.99,,2013-04-06 00:02:00,
2013-04-05 17:12:00,70.0,55.0,29.84,NE,51,0.0,-999.0,60,-99.99,,,-99.99,,2013-04-06 00:12:00,
2013-04-05 17:22:00,70.0,55.0,29.84,ENE,63,0.0,-999.0,60,-99.99,,,-99.99,,2013-04-06 00:22:00,
2013-04-05 17:32:00,70.0,55.0,29.84,ESE,110,1.0,-999.0,60,-99.99,,,-99.99,,2013-04-06 00:32:00,
2013-04-05 17:42:00,70.0,55.0,29.84,ESE,110,1.0,-999.0,60,-99.99,,,-99.99,,2013-04-06 00:42:00,
2013-04-05 17:52:00,69.0,55.0,29.84,East,90,1.0,-999.0,61,-99.99,,,-99.99,,2013-04-06 00:52:00,
2013-04-05 18:01:00,68.0,54.0,29.85,SE,130,0.0,-999.0,62,-99.99,,,-99.99,,2013-04-06 01:01:00,
2013-04-05 18:12:00,68.0,55.0,29.85,East,86,0.0,-999.0,63,-99.99,,,-99.99,,2013-04-06 01:12:00,
2013-04-05 18:22:00,68.0,55.0,29.85,East,86,0.0,-999.0,63,-99.99,,,-99.99,,2013-04-06 01:22:00,
2013-04-05 18:32:00,68.0,55.0,29.84,ESE,113,0.0,-999.0,63,-99.99,,,-99.99,,2013-04-06 01:32:00,
2013-04-05 18:42:00,68.0,55.0,29.84,ESE,113,0.0,-999.0,63,-99.99,,,-99.99,,2013-04-06 01:42:00,
2013-04-05 18:53:00,67.0,55.0,29.84,ESE,113,0.0,-999.0,65,-99.99,,,-99.99,,2013-04-06 01:53:00,
2013-04-05 19:01:00,66.0,54.0,29.85,ESE,123,0.0,-999.0,66,-99.99,,,-99.99,,2013-04-06 02:01:00,
2013-04-05 19:11:00,66.0,54.0,29.85,ESE,123,0.0,-999.0,66,-99.99,,,-99.99,,2013-04-06 02:11:00,
2013-04-05 19:22:00,65.0,54.0,29.85,ENE,59,0.0,-999.0,67,-99.99,,,-99.99,,2013-04-06 02:22:00,
2013-04-05 19:32:00,64.0,54.0,29.85,ENE,59,0.0,-999.0,69,-99.99,,,-99.99,,2013-04-06 02:32:00,
2013-04-05 19:42:00,64.0,54.0,29.85,ENE,59,0.0,-999.0,69,-99.99,,,-99.99,,2013-04-06 02:42:00,
2013-04-05 19:52:00,64.0,54.0,29.85,ENE,59,0.0,-999.0,70,-99.99,,,-99.99,,2013-04-06 02:52:00,
2013-04-05 20:02:00,63.0,53.0,29.85,ENE,59,0.0,-999.0,71,-99.99,,,-99.99,,2013-04-06 03:02:00,
2013-04-05 20:11:00,63.0,53.0,29.85,ENE,59,0.0,-999.0,71,-99.99,,,-99.99,,2013-04-06 03:11:00,
2013-04-05 20:21:00,62.0,53.0,29.85,ENE,59,0.0,-999.0,72,-99.99,,,-99.99,,2013-04-06 03:21:00,
2013-04-05 20:32:00,61.0,52.0,29.86,ENE,59,0.0,-999.0,73,-99.99,,,-99.99,,2013-04-06 03:32:00,
2013-04-05 20:42:00,61.0,52.0,29.86,ENE,59,0.0,-999.0,73,-99.99,,,-99.99,,2013-04-06 03:42:00,
2013-04-05 20:53:00,60.0,52.0,29.86,ENE,59,0.0,-999.0,74,-99.99,,,-99.99,,2013-04-06 03:53:00,
2013-04-05 21:02:00,59.0,51.0,29.87,ENE,59,0.0,-999.0,76,-99.99,,,-99.99,,2013-04-06 04:02:00,
2013-04-05 21:13:00,59.0,51.0,29.87,ENE,59,0.0,-999.0,76,-99.99,,,-99.99,,2013-04-06 04:13:00,
2013-04-05 21:22:00,59.0,53.0,29.87,ENE,59,0.0,-999.0,80,-99.99,,,-99.99,,2013-04-06 04:22:00,
2013-04-05 21:32:00,58.0,52.0,29.88,ENE,59,0.0,-999.0,79,-99.99,,,-99.99,,2013-04-06 04:32:00,
2013-04-05 21:42:00,58.0,52.0,29.88,ENE,59,0.0,-999.0,79,-99.99,,,-99.99,,2013-04-06 04:42:00,
2013-04-05 21:52:00,57.0,51.0,29.88,ENE,59,0.0,-999.0,80,-99.99,,,-99.99,,2013-04-06 04:52:00,
2013-04-05 22:01:00,57.0,51.0,29.89,ENE,59,0.0,-999.0,80,-99.99,,,-99.99,,2013-04-06 05:01:00,
2013-04-05 22:12:00,57.0,51.0,29.89,ENE,59,0.0,-999.0,80,-99.99,,,-99.99,,2013-04-06 05:12:00,
2013-04-05 22:22:00,56.0,50.0,29.89,ENE,59,0.0,-999.0,81,-99.99,,,-99.99,,2013-04-06 05:22:00,
2013-04-05 22:32:00,56.0,51.0,29.89,ENE,59,0.0,-999.0,82,-99.99,,,-99.99,,2013-04-06 05:32:00,
2013-04-05 22:42:00,56.0,51.0,29.89,ENE,59,0.0,-999.0,82,-99.99,,,-99.99,,2013-04-06 05:42:00,
2013-04-05 22:52:00,55.0,50.0,29.90,ENE,59,0.0,-999.0,83,-99.99,,,-99.99,,2013-04-06 05:52:00,
2013-04-05 23:02:00,55.0,50.0,29.90,ENE,59,0.0,-999.0,83,-99.99,,,-99.99,,2013-04-06 06:02:00,
2013-04-05 23:11:00,55.0,50.0,29.90,ENE,59,0.0,-999.0,83,-99.99,,,-99.99,,2013-04-06 06:11:00,
2013-04-05 23:22:00,55.0,50.0,29.90,ENE,59,0.0,-999.0,83,-99.99,,,-99.99,,2013-04-06 06:22:00,
2013-04-05 23:32:00,54.0,50.0,29.90,ENE,58,0.0,-999.0,86,-99.99,,,-99.99,,2013-04-06 06:32:00,
2013-04-05 23:42:00,54.0,50.0,29.90,ENE,58,0.0,-999.0,86,-99.99,,,-99.99,,2013-04-06 06:42:00,
2013-04-05 23:52:00,54.0,50.0,29.90,ENE,58,0.0,-999.0,86,-99.99,,,-99.99,,2013-04-06 06:52:00,